createdAt,value
2016-11-29T00:00:17.418Z,80.65
2016-11-29T00:00:45.103Z,80.74
2016-11-29T00:01:12.927Z,80.36
2016-11-29T00:01:40.833Z,80.84
2016-11-29T00:02:08.548Z,80.55
2016-11-29T00:02:36.363Z,81.04
2016-11-29T00:03:04.061Z,80.26
2016-11-29T00:03:31.777Z,80.26
2016-11-29T00:03:59.482Z,79.2
2016-11-29T00:04:27.193Z,79.58
2016-11-29T00:04:54.862Z,79.29
2016-11-29T00:05:22.581Z,79.78
2016-11-29T00:05:50.371Z,79.68
2016-11-29T00:06:18.080Z,79.58
2016-11-29T00:06:45.795Z,80.26
2016-11-29T00:07:13.507Z,80.26
2016-11-29T00:07:41.192Z,80.65
2016-11-29T00:08:08.887Z,80.16
2016-11-29T00:08:36.557Z,80.07
2016-11-29T00:09:04.352Z,80.36
2016-11-29T00:09:32.031Z,80.84
2016-11-29T00:09:59.716Z,81.32
2016-11-29T00:10:27.562Z,81.71
2016-11-29T00:10:55.364Z,80.84
2016-11-29T00:11:23.047Z,81.13
2016-11-29T00:11:50.806Z,80.46
2016-11-29T00:12:18.602Z,79.87
2016-11-29T00:12:46.293Z,80.16
2016-11-29T00:13:14.006Z,80.36
2016-11-29T00:13:41.718Z,80.07
2016-11-29T00:14:09.427Z,80.26
2016-11-29T00:14:37.136Z,80.07
2016-11-29T00:15:04.849Z,80.65
2016-11-29T00:15:32.559Z,80.74
2016-11-29T00:16:00.360Z,80.46
2016-11-29T00:16:28.049Z,80.26
2016-11-29T00:16:55.724Z,80.26
2016-11-29T00:17:23.396Z,79.68
2016-11-29T00:17:51.126Z,79.87
2016-11-29T00:18:18.804Z,79.78
2016-11-29T00:18:46.502Z,80.16
2016-11-29T00:19:14.175Z,80.26
2016-11-29T00:19:41.872Z,79.68
2016-11-29T00:20:09.577Z,79.78
2016-11-29T00:20:37.270Z,79.78
2016-11-29T00:21:04.947Z,79.97
2016-11-29T00:21:32.737Z,79.97
2016-11-29T00:22:00.481Z,80.36
2016-11-29T00:22:28.193Z,80.55
2016-11-29T00:22:55.898Z,80.16
2016-11-29T00:23:23.596Z,80.26
2016-11-29T00:23:53.966Z,79.97
2016-11-29T00:24:21.766Z,80.46
2016-11-29T00:24:49.444Z,79.97
2016-11-29T00:25:17.121Z,79.87
2016-11-29T00:25:44.892Z,80.26
2016-11-29T00:26:12.604Z,79.58
2016-11-29T00:26:40.329Z,79.87
2016-11-29T00:27:08.036Z,80.51
2016-11-29T00:27:35.808Z,80.26
2016-11-29T00:28:03.488Z,80.07
2016-11-29T00:28:31.166Z,80.36
2016-11-29T00:28:58.882Z,80.74
2016-11-29T00:29:26.554Z,80.26
2016-11-29T00:29:54.373Z,80.94
2016-11-29T00:30:22.054Z,80.74
2016-11-29T00:30:49.792Z,80.55
2016-11-29T00:31:17.450Z,80.55
2016-11-29T00:31:45.161Z,80.65
2016-11-29T00:32:12.836Z,80.07
2016-11-29T00:32:40.523Z,80.46
2016-11-29T00:33:08.310Z,80.84
2016-11-29T00:33:36.011Z,80.74
2016-11-29T00:34:03.676Z,80.26
2016-11-29T00:34:31.365Z,80.46
2016-11-29T00:34:59.059Z,80.65
2016-11-29T00:35:26.765Z,80.26
2016-11-29T00:35:54.448Z,80.36
2016-11-29T00:36:22.152Z,80.36
2016-11-29T00:36:49.820Z,80.46
2016-11-29T00:37:17.524Z,80.55
2016-11-29T00:37:45.241Z,80.46
2016-11-29T00:38:12.997Z,79.68
2016-11-29T00:38:40.709Z,79.68
2016-11-29T00:39:08.407Z,80.46
2016-11-29T00:39:36.110Z,80.26
2016-11-29T00:40:03.801Z,80.65
2016-11-29T00:40:31.513Z,80.46
2016-11-29T00:40:59.213Z,80.74
2016-11-29T00:41:26.914Z,79.78
2016-11-29T00:41:54.623Z,80.16
2016-11-29T00:42:22.311Z,80.74
2016-11-29T00:42:49.997Z,80.26
2016-11-29T00:43:17.827Z,80.36
2016-11-29T00:43:45.521Z,80.36
2016-11-29T00:44:13.328Z,80.26
2016-11-29T00:44:41.010Z,80.46
2016-11-29T00:45:08.716Z,80.26
2016-11-29T00:45:36.424Z,80.26
2016-11-29T00:46:04.115Z,80.46
2016-11-29T00:46:31.814Z,80.65
2016-11-29T00:46:59.505Z,80.55
2016-11-29T00:47:27.211Z,81.04
2016-11-29T00:47:54.905Z,80.65
2016-11-29T00:48:22.708Z,80.55
2016-11-29T00:48:50.397Z,80.07
2016-11-29T00:49:18.115Z,80.46
2016-11-29T00:49:45.821Z,80.55
2016-11-29T00:50:13.535Z,80.41
2016-11-29T00:50:41.248Z,80.65
2016-11-29T00:51:08.963Z,80.51
2016-11-29T00:51:36.654Z,80.65
2016-11-29T00:52:04.410Z,80.51
2016-11-29T00:52:32.126Z,80.61
2016-11-29T00:52:59.822Z,80.71
2016-11-29T00:53:27.527Z,80.61
2016-11-29T00:53:55.184Z,80.03
2016-11-29T00:54:22.990Z,80.65
2016-11-29T00:54:50.660Z,80.65
2016-11-29T00:55:18.351Z,80.65
2016-11-29T00:55:46.143Z,80.65
2016-11-29T00:56:13.824Z,80.46
2016-11-29T00:56:41.493Z,80.65
2016-11-29T00:57:09.178Z,80.99
2016-11-29T00:57:36.861Z,80.99
2016-11-29T00:58:04.546Z,80.46
2016-11-29T00:58:32.250Z,80.61
2016-11-29T00:59:00.041Z,80.61
2016-11-29T00:59:27.744Z,80.74
2016-11-29T00:59:55.445Z,80.74
2016-11-29T01:00:23.138Z,80.51
2016-11-29T01:00:50.838Z,81.09
2016-11-29T01:01:18.517Z,80.46
2016-11-29T01:01:46.244Z,80.71
2016-11-29T01:02:13.937Z,80.51
2016-11-29T01:02:41.619Z,80.22
2016-11-29T01:03:09.382Z,80.74
2016-11-29T01:03:37.105Z,80.74
2016-11-29T01:04:04.791Z,80.61
2016-11-29T01:04:32.471Z,80.74
2016-11-29T01:05:00.143Z,80.65
2016-11-29T01:05:27.838Z,80.46
2016-11-29T01:05:55.619Z,80.84
2016-11-29T01:06:23.304Z,80.65
2016-11-29T01:06:50.991Z,80.55
2016-11-29T01:07:18.706Z,80.46
2016-11-29T01:07:46.394Z,80.36
2016-11-29T01:08:14.097Z,80.36
2016-11-29T01:08:41.797Z,80.46
2016-11-29T01:09:09.534Z,79.97
2016-11-29T01:09:37.238Z,80.26
2016-11-29T01:10:04.936Z,80.36
2016-11-29T01:10:32.621Z,79.97
2016-11-29T01:11:00.410Z,79.78
2016-11-29T01:11:28.101Z,79.97
2016-11-29T01:11:55.910Z,80.46
2016-11-29T01:12:23.741Z,80.26
2016-11-29T01:12:51.440Z,80.55
2016-11-29T01:13:19.153Z,80.65
2016-11-29T01:13:47.147Z,80.07
2016-11-29T01:14:14.849Z,79.97
2016-11-29T01:14:42.663Z,80.65
2016-11-29T01:15:11.970Z,80.74
2016-11-29T01:15:40.733Z,80.74
2016-11-29T01:16:08.719Z,80.74
2016-11-29T01:16:36.509Z,80.46
2016-11-29T01:17:04.732Z,80.07
2016-11-29T01:17:32.416Z,80.07
2016-11-29T01:18:00.131Z,80.16
2016-11-29T01:18:27.823Z,80.07
2016-11-29T01:18:55.524Z,80.26
2016-11-29T01:19:23.196Z,80.46
2016-11-29T01:19:50.897Z,79.78
2016-11-29T01:20:18.581Z,79.78
2016-11-29T01:20:46.387Z,79.78
2016-11-29T01:21:14.070Z,79.49
2016-11-29T01:21:41.759Z,79.2
2016-11-29T01:22:09.528Z,79.68
2016-11-29T01:22:37.230Z,79.39
2016-11-29T01:23:04.932Z,79.29
2016-11-29T01:23:32.607Z,79.97
2016-11-29T01:24:00.495Z,79.78
2016-11-29T01:24:28.190Z,79.58
2016-11-29T01:24:55.887Z,79.39
2016-11-29T01:25:23.583Z,79.58
2016-11-29T01:25:51.257Z,80.49
2016-11-29T01:26:18.920Z,79.72
2016-11-29T01:26:46.611Z,80.4
2016-11-29T01:27:14.284Z,79.72
2016-11-29T01:27:41.965Z,79.82
2016-11-29T01:28:09.797Z,79.91
2016-11-29T01:28:37.497Z,79.43
2016-11-29T01:29:05.315Z,79.43
2016-11-29T01:29:33.006Z,79.62
2016-11-29T01:30:00.695Z,78.66
2016-11-29T01:30:28.402Z,78.66
2016-11-29T01:30:56.103Z,78.66
2016-11-29T01:31:23.805Z,78.36
2016-11-29T01:31:51.508Z,78.46
2016-11-29T01:32:19.223Z,78.27
2016-11-29T01:32:46.994Z,78.66
2016-11-29T01:33:14.696Z,78.56
2016-11-29T01:33:42.390Z,79.04
2016-11-29T01:34:10.192Z,78.85
2016-11-29T01:34:37.884Z,79.14
2016-11-29T01:35:05.585Z,78.94
2016-11-29T01:35:33.260Z,78.56
2016-11-29T01:36:00.978Z,78.27
2016-11-29T01:36:28.752Z,78.36
2016-11-29T01:36:56.446Z,78.46
2016-11-29T01:37:24.210Z,78.46
2016-11-29T01:37:51.940Z,78.46
2016-11-29T01:38:19.782Z,78.56
2016-11-29T01:38:47.471Z,78.66
2016-11-29T01:39:15.156Z,78.75
2016-11-29T01:39:42.841Z,78.75
2016-11-29T01:40:10.529Z,78.46
2016-11-29T01:40:38.240Z,78.66
2016-11-29T01:41:05.933Z,79.14
2016-11-29T01:41:33.672Z,78.94
2016-11-29T01:42:01.459Z,78.94
2016-11-29T01:42:29.241Z,78.66
2016-11-29T01:42:57.011Z,78.46
2016-11-29T01:43:24.712Z,78.66
2016-11-29T01:43:52.427Z,78.46
2016-11-29T01:44:20.206Z,78.27
2016-11-29T01:44:47.892Z,77.98
2016-11-29T01:45:15.559Z,77.98
2016-11-29T01:45:43.353Z,77.78
2016-11-29T01:46:11.073Z,77.98
2016-11-29T01:46:38.773Z,77.98
2016-11-29T01:47:06.488Z,77.69
2016-11-29T01:47:34.188Z,78.27
2016-11-29T01:48:01.883Z,78.27
2016-11-29T01:48:29.679Z,78.46
2016-11-29T01:48:57.387Z,78.27
2016-11-29T01:49:25.091Z,78.27
2016-11-29T01:49:52.767Z,78.36
2016-11-29T01:50:20.457Z,78.36
2016-11-29T01:50:48.158Z,78.17
2016-11-29T01:51:15.846Z,78.46
2016-11-29T01:51:43.648Z,78.17
2016-11-29T01:52:11.338Z,78.17
2016-11-29T01:52:39.114Z,78.66
2016-11-29T01:53:06.804Z,78.27
2016-11-29T01:53:34.508Z,78.46
2016-11-29T01:54:02.210Z,77.98
2016-11-29T01:54:29.960Z,78.27
2016-11-29T01:54:57.660Z,78.46
2016-11-29T01:55:25.357Z,78.27
2016-11-29T01:55:53.120Z,78.81
2016-11-29T01:56:20.810Z,78.61
2016-11-29T01:56:48.491Z,78.75
2016-11-29T01:57:16.254Z,79.04
2016-11-29T01:57:43.955Z,78.71
2016-11-29T01:58:11.655Z,79
2016-11-29T01:58:39.427Z,79.68
2016-11-29T01:59:07.199Z,79.39
2016-11-29T01:59:34.901Z,79.49
2016-11-29T02:00:02.692Z,79.68
2016-11-29T02:00:30.504Z,79.87
2016-11-29T02:00:58.279Z,79.87
2016-11-29T02:01:25.987Z,79.39
2016-11-29T02:01:53.781Z,79.68
2016-11-29T02:02:21.500Z,79.78
2016-11-29T02:02:49.196Z,79.87
2016-11-29T02:03:16.887Z,79.68
2016-11-29T02:03:44.609Z,79.58
2016-11-29T02:04:12.286Z,80.46
2016-11-29T02:04:39.988Z,80.46
2016-11-29T02:05:07.689Z,79.87
2016-11-29T02:05:35.379Z,80.26
2016-11-29T02:06:03.083Z,79.52
2016-11-29T02:06:30.804Z,79.29
2016-11-29T02:06:58.496Z,79.72
2016-11-29T02:07:26.277Z,79.62
2016-11-29T02:07:53.971Z,79.62
2016-11-29T02:08:21.705Z,78.94
2016-11-29T02:08:49.399Z,79.14
2016-11-29T02:09:17.098Z,78.94
2016-11-29T02:09:44.824Z,79
2016-11-29T02:10:12.665Z,78.75
2016-11-29T02:10:40.352Z,78.81
2016-11-29T02:11:08.069Z,78.85
2016-11-29T02:11:35.771Z,78.46
2016-11-29T02:12:03.497Z,79.04
2016-11-29T02:12:31.173Z,78.56
2016-11-29T02:12:58.981Z,78.94
2016-11-29T02:13:26.786Z,79.14
2016-11-29T02:13:54.498Z,79.04
2016-11-29T02:14:22.228Z,78.52
2016-11-29T02:14:49.937Z,78.94
2016-11-29T02:15:17.655Z,78.52
2016-11-29T02:15:45.350Z,78.85
2016-11-29T02:16:13.069Z,78.94
2016-11-29T02:16:40.747Z,78.91
2016-11-29T02:17:08.509Z,78.61
2016-11-29T02:17:36.184Z,78.91
2016-11-29T02:18:03.892Z,79.1
2016-11-29T02:18:31.569Z,79.49
2016-11-29T02:18:59.270Z,79.2
2016-11-29T02:19:26.954Z,79.68
2016-11-29T02:19:54.753Z,79.68
2016-11-29T02:20:22.559Z,79.49
2016-11-29T02:20:50.436Z,79.58
2016-11-29T02:21:18.114Z,79.68
2016-11-29T02:21:45.891Z,80.07
2016-11-29T02:22:13.663Z,79.68
2016-11-29T02:22:41.359Z,79.49
2016-11-29T02:23:09.052Z,79.97
2016-11-29T02:23:36.747Z,79.49
2016-11-29T02:24:04.426Z,79.78
2016-11-29T02:24:32.132Z,79.58
2016-11-29T02:24:59.822Z,80.36
2016-11-29T02:25:27.531Z,79.97
2016-11-29T02:25:55.215Z,79.68
2016-11-29T02:26:22.909Z,79.68
2016-11-29T02:26:50.603Z,79.78
2016-11-29T02:27:18.319Z,79.78
2016-11-29T02:27:46.024Z,79.78
2016-11-29T02:28:13.722Z,79.68
2016-11-29T02:28:41.413Z,80.07
2016-11-29T02:29:09.088Z,79.97
2016-11-29T02:29:36.911Z,80.26
2016-11-29T02:30:04.724Z,80.26
2016-11-29T02:30:32.405Z,80.07
2016-11-29T02:31:00.086Z,80.26
2016-11-29T02:31:27.790Z,80.26
2016-11-29T02:31:55.543Z,79.97
2016-11-29T02:32:23.269Z,79.58
2016-11-29T02:32:50.972Z,79.39
2016-11-29T02:33:18.654Z,79.39
2016-11-29T02:33:46.342Z,79.78
2016-11-29T02:34:14.059Z,79.58
2016-11-29T02:34:41.840Z,79.78
2016-11-29T02:35:09.520Z,79.68
2016-11-29T02:35:37.207Z,80.46
2016-11-29T02:36:04.921Z,80.07
2016-11-29T02:36:32.693Z,79.68
2016-11-29T02:37:00.382Z,80.26
2016-11-29T02:37:28.051Z,80.26
2016-11-29T02:37:55.722Z,80.36
2016-11-29T02:38:23.502Z,80.36
2016-11-29T02:38:51.155Z,80.55
2016-11-29T02:39:18.839Z,80.74
2016-11-29T02:39:46.526Z,80.74
2016-11-29T02:40:14.317Z,80.74
2016-11-29T02:40:42.064Z,80.94
2016-11-29T02:41:09.854Z,80.36
2016-11-29T02:41:37.645Z,80.84
2016-11-29T02:42:05.419Z,80.74
2016-11-29T02:42:33.133Z,80.07
2016-11-29T02:43:00.825Z,79.87
2016-11-29T02:43:28.516Z,80.16
2016-11-29T02:43:56.225Z,80.07
2016-11-29T02:44:23.941Z,79.97
2016-11-29T02:44:51.628Z,80.46
2016-11-29T02:45:19.315Z,79.78
2016-11-29T02:45:46.991Z,80.07
2016-11-29T02:46:14.682Z,80.46
2016-11-29T02:46:42.366Z,80.55
2016-11-29T02:47:10.080Z,80.07
2016-11-29T02:47:37.767Z,80.65
2016-11-29T02:48:05.527Z,80.36
2016-11-29T02:48:33.223Z,80.55
2016-11-29T02:49:01.018Z,81.13
2016-11-29T02:49:28.888Z,81.13
2016-11-29T02:49:56.614Z,81.09
2016-11-29T02:50:24.310Z,80.8
2016-11-29T02:50:52.117Z,81.67
2016-11-29T02:51:19.803Z,81.77
2016-11-29T02:51:47.516Z,81.77
2016-11-29T02:52:15.201Z,81.38
2016-11-29T02:52:42.986Z,81.48
2016-11-29T02:53:10.712Z,81.48
2016-11-29T02:53:38.401Z,82.06
2016-11-29T02:54:06.101Z,81.87
2016-11-29T02:54:33.807Z,82.25
2016-11-29T02:55:01.485Z,82.54
2016-11-29T02:55:29.262Z,82.45
2016-11-29T02:55:57.082Z,82.06
2016-11-29T02:56:24.775Z,82.45
2016-11-29T02:56:52.536Z,82.35
2016-11-29T02:57:20.222Z,82.45
2016-11-29T02:57:47.897Z,82.15
2016-11-29T02:58:15.585Z,82.35
2016-11-29T02:58:43.271Z,82.45
2016-11-29T02:59:11.089Z,82.45
2016-11-29T02:59:38.852Z,82.54
2016-11-29T03:00:06.564Z,82.45
2016-11-29T03:00:34.536Z,82.25
2016-11-29T03:01:02.241Z,82.06
2016-11-29T03:01:29.931Z,82.25
2016-11-29T03:01:57.622Z,82.54
2016-11-29T03:02:25.319Z,82.06
2016-11-29T03:02:53.010Z,82.35
2016-11-29T03:03:20.673Z,82.15
2016-11-29T03:03:48.345Z,82.25
2016-11-29T03:04:16.041Z,82.25
2016-11-29T03:04:43.801Z,82.54
2016-11-29T03:05:11.471Z,82.25
2016-11-29T03:05:39.151Z,82.45
2016-11-29T03:06:06.864Z,82.45
2016-11-29T03:06:34.590Z,82.25
2016-11-29T03:07:02.314Z,82.25
2016-11-29T03:07:29.999Z,82.25
2016-11-29T03:07:57.677Z,82.45
2016-11-29T03:08:25.384Z,82.93
2016-11-29T03:08:53.199Z,82.45
2016-11-29T03:09:21.009Z,82.25
2016-11-29T03:09:48.796Z,82.25
2016-11-29T03:10:16.480Z,82.54
2016-11-29T03:10:44.366Z,82.25
2016-11-29T03:11:12.086Z,82.73
2016-11-29T03:11:39.821Z,82.15
2016-11-29T03:12:07.532Z,82.54
2016-11-29T03:12:35.245Z,83.03
2016-11-29T03:13:02.942Z,83.03
2016-11-29T03:13:30.657Z,82.93
2016-11-29T03:13:58.343Z,82.93
2016-11-29T03:14:26.050Z,83.18
2016-11-29T03:14:53.787Z,83.12
2016-11-29T03:15:21.466Z,83.31
2016-11-29T03:15:49.188Z,82.64
2016-11-29T03:16:16.877Z,83.31
2016-11-29T03:16:44.568Z,83.22
2016-11-29T03:17:12.279Z,82.98
2016-11-29T03:17:39.984Z,82.83
2016-11-29T03:18:07.672Z,83.03
2016-11-29T03:18:35.354Z,83.27
2016-11-29T03:19:03.068Z,83.18
2016-11-29T03:19:30.768Z,82.89
2016-11-29T03:19:58.454Z,83.56
2016-11-29T03:20:26.162Z,83.27
2016-11-29T03:20:53.878Z,82.83
2016-11-29T03:21:21.592Z,82.79
2016-11-29T03:21:49.372Z,82.98
2016-11-29T03:22:17.166Z,82.98
2016-11-29T03:22:44.888Z,82.69
2016-11-29T03:23:12.607Z,82.98
2016-11-29T03:23:40.331Z,83.08
2016-11-29T03:24:08.028Z,82.98
2016-11-29T03:24:35.703Z,83.37
2016-11-29T03:25:03.411Z,83.75
2016-11-29T03:25:31.206Z,83.27
2016-11-29T03:25:58.909Z,83.75
2016-11-29T03:26:26.790Z,83.47
2016-11-29T03:26:54.479Z,83.37
2016-11-29T03:27:22.182Z,83.75
2016-11-29T03:27:49.874Z,83.47
2016-11-29T03:28:17.575Z,83.85
2016-11-29T03:28:45.271Z,84.14
2016-11-29T03:29:12.982Z,83.85
2016-11-29T03:29:40.693Z,83.56
2016-11-29T03:30:08.473Z,84.05
2016-11-29T03:30:36.152Z,84.05
2016-11-29T03:31:03.850Z,83.85
2016-11-29T03:31:31.536Z,83.75
2016-11-29T03:31:59.307Z,83.27
2016-11-29T03:32:27.032Z,83.27
2016-11-29T03:32:54.735Z,83.37
2016-11-29T03:33:22.463Z,83.95
2016-11-29T03:33:50.140Z,82.98
2016-11-29T03:34:17.859Z,84.24
2016-11-29T03:34:45.650Z,84.14
2016-11-29T03:35:13.348Z,83.85
2016-11-29T03:35:41.073Z,84.05
2016-11-29T03:36:08.791Z,84.05
2016-11-29T03:36:36.471Z,83.85
2016-11-29T03:37:04.151Z,84.14
2016-11-29T03:37:31.936Z,83.85
2016-11-29T03:37:59.635Z,84.63
2016-11-29T03:38:27.334Z,84.63
2016-11-29T03:38:55.004Z,84.43
2016-11-29T03:39:22.697Z,84.63
2016-11-29T03:39:50.401Z,84.43
2016-11-29T03:40:18.146Z,84.24
2016-11-29T03:40:45.837Z,84.43
2016-11-29T03:41:13.531Z,84.14
2016-11-29T03:41:41.218Z,83.95
2016-11-29T03:42:08.906Z,83.95
2016-11-29T03:42:36.607Z,83.95
2016-11-29T03:43:04.354Z,84.43
2016-11-29T03:43:32.034Z,84.53
2016-11-29T03:43:59.711Z,84.24
2016-11-29T03:44:27.538Z,84.24
2016-11-29T03:44:55.222Z,84.24
2016-11-29T03:45:22.999Z,84.24
2016-11-29T03:45:50.725Z,84.05
2016-11-29T03:46:18.418Z,83.85
2016-11-29T03:46:46.111Z,84.24
2016-11-29T03:47:13.785Z,83.95
2016-11-29T03:47:41.459Z,83.56
2016-11-29T03:48:09.125Z,83.75
2016-11-29T03:48:36.815Z,83.85
2016-11-29T03:49:04.522Z,83.37
2016-11-29T03:49:32.233Z,84.14
2016-11-29T03:49:59.913Z,84.14
2016-11-29T03:50:27.611Z,84.05
2016-11-29T03:50:55.329Z,84.43
2016-11-29T03:51:23.042Z,84.33
2016-11-29T03:51:50.751Z,84.43
2016-11-29T03:52:18.465Z,84.43
2016-11-29T03:52:46.259Z,84.43
2016-11-29T03:53:13.963Z,84.43
2016-11-29T03:53:41.677Z,84.53
2016-11-29T03:54:09.372Z,84.53
2016-11-29T03:54:37.051Z,84.24
2016-11-29T03:55:04.736Z,84.63
2016-11-29T03:55:32.422Z,84.24
2016-11-29T03:56:00.106Z,84.43
2016-11-29T03:56:27.786Z,84.24
2016-11-29T03:56:55.472Z,84.24
2016-11-29T03:57:23.185Z,83.95
2016-11-29T03:57:50.877Z,83.85
2016-11-29T03:58:18.583Z,83.75
2016-11-29T03:58:46.352Z,84.43
2016-11-29T03:59:14.085Z,84.53
2016-11-29T03:59:41.766Z,84.24
2016-11-29T04:00:09.462Z,84.24
2016-11-29T04:00:37.185Z,83.95
2016-11-29T04:01:04.883Z,83.75
2016-11-29T04:01:32.571Z,83.85
2016-11-29T04:02:00.352Z,84.14
2016-11-29T04:02:28.035Z,83.95
2016-11-29T04:02:55.742Z,84.43
2016-11-29T04:03:23.438Z,84.33
2016-11-29T04:03:51.122Z,84.43
2016-11-29T04:04:18.807Z,84.24
2016-11-29T04:04:46.505Z,84.43
2016-11-29T04:05:14.204Z,84.24
2016-11-29T04:05:41.894Z,84.24
2016-11-29T04:06:09.571Z,84.14
2016-11-29T04:06:37.241Z,84.24
2016-11-29T04:07:05.035Z,84.43
2016-11-29T04:07:32.726Z,84.43
2016-11-29T04:08:00.405Z,84.43
2016-11-29T04:08:28.116Z,83.95
2016-11-29T04:08:55.902Z,84.05
2016-11-29T04:09:23.583Z,84.05
2016-11-29T04:09:51.277Z,84.05
2016-11-29T04:10:18.994Z,83.85
2016-11-29T04:10:46.700Z,84.24
2016-11-29T04:11:14.415Z,84.05
2016-11-29T04:11:42.103Z,83.75
2016-11-29T04:12:09.796Z,83.56
2016-11-29T04:12:37.496Z,83.56
2016-11-29T04:13:05.179Z,83.75
2016-11-29T04:13:32.871Z,83.95
2016-11-29T04:14:00.556Z,83.95
2016-11-29T04:14:28.252Z,84.14
2016-11-29T04:14:55.948Z,83.75
2016-11-29T04:15:23.682Z,82.79
2016-11-29T04:15:51.375Z,83.66
2016-11-29T04:16:19.063Z,83.47
2016-11-29T04:16:46.734Z,83.66
2016-11-29T04:17:14.448Z,83.56
2016-11-29T04:17:42.131Z,83.47
2016-11-29T04:18:09.823Z,83.37
2016-11-29T04:18:37.637Z,83.47
2016-11-29T04:19:05.309Z,83.47
2016-11-29T04:19:33.017Z,83.61
2016-11-29T04:20:00.719Z,83.18
2016-11-29T04:20:28.446Z,83.61
2016-11-29T04:20:56.134Z,83.31
2016-11-29T04:21:23.810Z,83.31
2016-11-29T04:21:51.515Z,83.41
2016-11-29T04:22:19.293Z,83.41
2016-11-29T04:22:46.998Z,83.41
2016-11-29T04:23:14.865Z,83.41
2016-11-29T04:23:42.549Z,83.03
2016-11-29T04:24:10.324Z,83.41
2016-11-29T04:24:38.014Z,83.41
2016-11-29T04:25:05.707Z,83.03
2016-11-29T04:25:33.390Z,83.12
2016-11-29T04:26:01.140Z,83.31
2016-11-29T04:26:28.821Z,82.83
2016-11-29T04:26:56.515Z,82.35
2016-11-29T04:27:24.270Z,82.06
2016-11-29T04:27:51.942Z,82.54
2016-11-29T04:28:19.616Z,82.45
2016-11-29T04:28:47.292Z,82.35
2016-11-29T04:29:15.011Z,82.25
2016-11-29T04:29:42.681Z,81.96
2016-11-29T04:30:10.412Z,82.35
2016-11-29T04:30:38.088Z,82.15
2016-11-29T04:31:05.765Z,81.96
2016-11-29T04:31:33.566Z,81.77
2016-11-29T04:32:01.375Z,81.87
2016-11-29T04:32:29.097Z,80.51
2016-11-29T04:32:56.798Z,80.99
2016-11-29T04:33:24.505Z,80.28
2016-11-29T04:33:52.234Z,80.66
2016-11-29T04:34:19.925Z,80.66
2016-11-29T04:34:47.626Z,81.82
2016-11-29T04:35:15.317Z,81.73
2016-11-29T04:35:43.016Z,81.82
2016-11-29T04:36:10.721Z,82.5
2016-11-29T04:36:38.525Z,82.79
2016-11-29T04:37:06.221Z,82.94
2016-11-29T04:37:33.903Z,83.37
2016-11-29T04:38:01.623Z,84.58
2016-11-29T04:38:29.343Z,84.1
2016-11-29T04:38:57.068Z,84.39
2016-11-29T04:39:24.743Z,84.78
2016-11-29T04:39:52.405Z,85.26
2016-11-29T04:40:20.174Z,85.7
2016-11-29T04:40:47.871Z,86.47
2016-11-29T04:41:15.560Z,86.38
2016-11-29T04:41:43.251Z,86.57
2016-11-29T04:42:10.947Z,87.01
2016-11-29T04:42:38.620Z,87.97
2016-11-29T04:43:06.341Z,88.99
2016-11-29T04:43:34.049Z,89.28
2016-11-29T04:44:01.744Z,90.15
2016-11-29T04:44:29.414Z,90.34
2016-11-29T04:44:57.117Z,91.06
2016-11-29T04:45:24.819Z,91.83
2016-11-29T04:45:52.552Z,92.13
2016-11-29T04:46:20.241Z,92.61
2016-11-29T04:46:47.934Z,93.09
2016-11-29T04:47:15.633Z,93.57
2016-11-29T04:47:43.327Z,93.96
2016-11-29T04:48:11.022Z,94.63
2016-11-29T04:48:38.707Z,94.29
2016-11-29T04:49:06.381Z,94.73
2016-11-29T04:49:34.076Z,95.21
2016-11-29T04:50:01.774Z,95.26
2016-11-29T04:50:29.443Z,95.4
2016-11-29T04:50:57.126Z,95.5
2016-11-29T04:51:24.804Z,95.94
2016-11-29T04:51:52.534Z,95.64
2016-11-29T04:52:20.228Z,95.84
2016-11-29T04:52:47.924Z,96.03
2016-11-29T04:53:15.605Z,96.12
2016-11-29T04:53:43.295Z,95.64
2016-11-29T04:54:11.000Z,95.84
2016-11-29T04:54:38.717Z,96.12
2016-11-29T04:55:06.405Z,95.84
2016-11-29T04:55:34.087Z,95.94
2016-11-29T04:56:01.802Z,96.32
2016-11-29T04:56:29.511Z,96.32
2016-11-29T04:56:57.195Z,96.12
2016-11-29T04:57:24.931Z,96.32
2016-11-29T04:57:52.637Z,96.32
2016-11-29T04:58:20.340Z,96.22
2016-11-29T04:58:48.021Z,96.61
2016-11-29T04:59:15.693Z,96.51
2016-11-29T04:59:43.497Z,97.09
2016-11-29T05:00:11.174Z,96.89
2016-11-29T05:00:38.875Z,96.7
2016-11-29T05:01:06.610Z,96.56
2016-11-29T05:01:34.317Z,96.32
2016-11-29T05:02:01.991Z,96.08
2016-11-29T05:02:29.665Z,96.32
2016-11-29T05:02:57.466Z,96.27
2016-11-29T05:03:25.177Z,96.56
2016-11-29T05:03:52.857Z,96.37
2016-11-29T05:04:20.654Z,96.94
2016-11-29T05:04:48.375Z,96.75
2016-11-29T05:05:16.068Z,97.14
2016-11-29T05:05:43.764Z,97.14
2016-11-29T05:06:11.535Z,96.66
2016-11-29T05:06:39.238Z,97.14
2016-11-29T05:07:07.106Z,97.52
2016-11-29T05:07:35.020Z,97.42
2016-11-29T05:08:02.723Z,97.62
2016-11-29T05:08:30.407Z,97.62
2016-11-29T05:08:58.132Z,97.62
2016-11-29T05:09:25.813Z,97.42
2016-11-29T05:09:53.483Z,97.38
2016-11-29T05:10:21.168Z,97.86
2016-11-29T05:10:48.835Z,97.57
2016-11-29T05:11:16.614Z,97.67
2016-11-29T05:11:44.351Z,97.86
2016-11-29T05:12:12.017Z,97.67
2016-11-29T05:12:39.692Z,97.86
2016-11-29T05:13:07.393Z,97.57
2016-11-29T05:13:35.091Z,97.86
2016-11-29T05:14:02.792Z,97.57
2016-11-29T05:14:30.502Z,97.57
2016-11-29T05:14:58.198Z,97.57
2016-11-29T05:15:25.858Z,97.47
2016-11-29T05:15:53.581Z,97.76
2016-11-29T05:16:21.258Z,97.67
2016-11-29T05:16:48.958Z,97.86
2016-11-29T05:17:16.650Z,97.86
2016-11-29T05:17:44.333Z,98.05
2016-11-29T05:18:12.111Z,98.24
2016-11-29T05:18:39.788Z,98.24
2016-11-29T05:19:07.564Z,97.96
2016-11-29T05:19:35.266Z,98.34
2016-11-29T05:20:02.951Z,98.92
2016-11-29T05:20:30.636Z,98.54
2016-11-29T05:20:58.323Z,98.63
2016-11-29T05:21:26.089Z,98.63
2016-11-29T05:21:53.878Z,98.49
2016-11-29T05:22:21.539Z,98.68
2016-11-29T05:22:49.250Z,98.63
2016-11-29T05:23:16.928Z,98.68
2016-11-29T05:23:44.638Z,98.82
2016-11-29T05:24:12.331Z,98.1
2016-11-29T05:24:40.031Z,98.19
2016-11-29T05:25:07.728Z,98.29
2016-11-29T05:25:35.524Z,98.29
2016-11-29T05:26:03.194Z,98.24
2016-11-29T05:26:30.869Z,98.24
2016-11-29T05:26:58.581Z,98.24
2016-11-29T05:27:26.268Z,98.24
2016-11-29T05:27:53.971Z,97.91
2016-11-29T05:28:21.650Z,98.14
2016-11-29T05:28:49.356Z,98.34
2016-11-29T05:29:17.156Z,98.54
2016-11-29T05:29:44.851Z,98.68
2016-11-29T05:30:12.545Z,98.44
2016-11-29T05:30:40.244Z,98.58
2016-11-29T05:31:07.920Z,98.68
2016-11-29T05:31:35.629Z,98.87
2016-11-29T05:32:03.288Z,98.68
2016-11-29T05:32:31.015Z,98.97
2016-11-29T05:32:58.795Z,98.58
2016-11-29T05:33:26.481Z,98.87
2016-11-29T05:33:54.165Z,98.58
2016-11-29T05:34:21.843Z,98.87
2016-11-29T05:34:49.517Z,98.87
2016-11-29T05:35:17.190Z,98.49
2016-11-29T05:35:44.938Z,98.87
2016-11-29T05:36:12.621Z,98.1
2016-11-29T05:36:40.292Z,98.29
2016-11-29T05:37:08.033Z,98.19
2016-11-29T05:37:35.811Z,98.19
2016-11-29T05:38:03.509Z,98.1
2016-11-29T05:38:31.190Z,97.91
2016-11-29T05:38:58.974Z,97.81
2016-11-29T05:39:26.712Z,97.91
2016-11-29T05:39:54.464Z,97.81
2016-11-29T05:40:22.173Z,97.52
2016-11-29T05:40:49.883Z,97.81
2016-11-29T05:41:17.553Z,97.72
2016-11-29T05:41:45.248Z,97.62
2016-11-29T05:42:12.944Z,97.62
2016-11-29T05:42:40.624Z,97.91
2016-11-29T05:43:08.308Z,97.81
2016-11-29T05:43:36.003Z,97.72
2016-11-29T05:44:03.685Z,97.52
2016-11-29T05:44:31.463Z,97.62
2016-11-29T05:44:59.167Z,97.91
2016-11-29T05:45:26.992Z,97.81
2016-11-29T05:45:54.647Z,97.62
2016-11-29T05:46:22.330Z,97.52
2016-11-29T05:46:50.005Z,97.91
2016-11-29T05:47:17.710Z,97.62
2016-11-29T05:47:45.413Z,97.62
2016-11-29T05:48:13.086Z,97.81
2016-11-29T05:48:40.775Z,97.72
2016-11-29T05:49:08.440Z,97.72
2016-11-29T05:49:36.128Z,97.81
2016-11-29T05:50:03.814Z,97.72
2016-11-29T05:50:31.512Z,97.42
2016-11-29T05:50:59.236Z,97.62
2016-11-29T05:51:26.940Z,97.33
2016-11-29T05:51:54.636Z,97.42
2016-11-29T05:52:22.343Z,97.42
2016-11-29T05:52:50.056Z,97.14
2016-11-29T05:53:17.749Z,97.52
2016-11-29T05:53:45.398Z,97.52
2016-11-29T05:54:13.183Z,97.62
2016-11-29T05:54:40.989Z,97.52
2016-11-29T05:55:08.698Z,97.42
2016-11-29T05:55:36.386Z,97.24
2016-11-29T05:56:04.041Z,97.14
2016-11-29T05:56:31.731Z,97.72
2016-11-29T05:56:59.413Z,97.52
2016-11-29T05:57:27.155Z,97.81